createdAt,value
2023-04-20T00:00:09.471Z,255.63
2023-04-20T00:02:38.315Z,262.00
2023-04-20T00:05:08.063Z,257.08
2023-04-20T00:07:36.708Z,268.27
2023-04-20T00:10:06.022Z,274.05
2023-04-20T00:12:34.392Z,282.75
2023-04-20T00:15:04.685Z,292.67
2023-04-20T00:17:33.284Z,293.92
2023-04-20T00:20:01.755Z,280.15
2023-04-20T00:22:30.831Z,315.13
2023-04-20T00:24:59.250Z,329.70
2023-04-20T00:27:27.621Z,314.58
2023-04-20T00:29:56.024Z,322.33
2023-04-20T00:32:26.008Z,335.50
2023-04-20T00:34:54.413Z,346.75
2023-04-20T00:37:25.529Z,326.30
2023-04-20T00:39:53.880Z,343.67
2023-04-20T00:42:22.257Z,354.17
2023-04-20T00:44:51.339Z,363.27
2023-04-20T00:47:19.702Z,394.73
2023-04-20T00:49:49.585Z,358.08
2023-04-20T00:52:18.098Z,395.52
2023-04-20T00:54:46.557Z,401.20
2023-04-20T00:57:16.670Z,391.40
2023-04-20T00:59:45.076Z,419.85
2023-04-20T01:02:13.531Z,366.73
2023-04-20T01:04:41.915Z,364.50
2023-04-20T01:07:11.753Z,422.15
2023-04-20T01:09:40.778Z,401.75
2023-04-20T01:12:10.429Z,393.27
2023-04-20T01:14:38.608Z,424.73
2023-04-20T01:17:07.054Z,417.15
2023-04-20T01:19:35.637Z,444.83
2023-04-20T01:22:04.070Z,466.60
2023-04-20T01:24:33.836Z,468.80
2023-04-20T01:27:02.558Z,484.73
2023-04-20T01:29:30.982Z,493.50
2023-04-20T01:31:59.293Z,481.10
2023-04-20T01:34:27.675Z,487.08
2023-04-20T01:36:56.006Z,497.73
2023-04-20T01:39:24.507Z,516.95
2023-04-20T01:41:54.279Z,522.33
2023-04-20T01:44:22.746Z,527.33
2023-04-20T01:46:51.162Z,485.40
2023-04-20T01:49:19.720Z,502.92
2023-04-20T01:51:48.219Z,523.55
2023-04-20T01:54:16.582Z,535.20
2023-04-20T01:56:44.907Z,514.25
2023-04-20T01:59:14.691Z,536.10
2023-04-20T02:01:43.169Z,533.15
2023-04-20T02:04:11.640Z,526.85
2023-04-20T02:06:40.020Z,521.42
2023-04-20T02:09:09.305Z,524.38
2023-04-20T02:11:37.838Z,523.30
2023-04-20T02:14:06.147Z,523.90
2023-04-20T02:16:37.772Z,519.42
2023-04-20T02:19:06.730Z,528.00
2023-04-20T02:21:35.404Z,558.83
2023-04-20T02:24:03.870Z,523.13
2023-04-20T02:26:32.259Z,541.80
2023-04-20T02:29:00.550Z,552.40
2023-04-20T02:31:28.949Z,585.10
2023-04-20T02:33:58.718Z,559.55
2023-04-20T02:36:27.028Z,613.53
2023-04-20T02:38:55.335Z,530.63
2023-04-20T02:41:23.650Z,568.08
2023-04-20T02:43:52.056Z,595.92
2023-04-20T02:46:21.321Z,538.58
2023-04-20T02:48:49.664Z,521.45
2023-04-20T02:51:19.355Z,593.78
2023-04-20T02:53:47.688Z,566.78
2023-04-20T02:56:16.087Z,586.72
2023-04-20T02:58:44.572Z,589.08
2023-04-20T03:01:12.993Z,544.53
2023-04-20T03:03:41.865Z,622.33
2023-04-20T03:06:10.292Z,551.72
2023-04-20T03:08:39.968Z,583.53
2023-04-20T03:11:08.322Z,598.50
2023-04-20T03:13:37.254Z,566.38
2023-04-20T03:16:06.605Z,580.47
2023-04-20T03:18:34.991Z,716.83
2023-04-20T03:21:03.345Z,574.60
2023-04-20T03:23:31.819Z,586.33
2023-04-20T03:26:01.623Z,608.08
2023-04-20T03:28:29.969Z,578.58
2023-04-20T03:30:58.595Z,606.63
2023-04-20T03:33:28.033Z,622.50
2023-04-20T03:35:56.445Z,631.05
2023-04-20T03:38:24.863Z,591.97
2023-04-20T03:40:53.310Z,609.60
2023-04-20T03:43:23.126Z,596.25
2023-04-20T03:45:51.478Z,623.85
2023-04-20T03:48:19.901Z,619.42
2023-04-20T03:50:48.301Z,618.78
2023-04-20T03:53:16.645Z,603.80
2023-04-20T03:55:45.000Z,582.00
2023-04-20T03:58:13.368Z,629.67
2023-04-20T04:00:43.136Z,596.80
2023-04-20T04:03:11.735Z,613.05
2023-04-20T04:05:40.406Z,619.30
2023-04-20T04:08:13.643Z,780.63
2023-04-20T04:10:45.190Z,625.08
2023-04-20T04:13:13.528Z,602.63
2023-04-20T04:15:43.298Z,620.20
2023-04-20T04:18:11.884Z,593.38
2023-04-20T04:20:40.278Z,629.92
2023-04-20T04:23:08.666Z,674.28
2023-04-20T04:25:39.873Z,610.95
2023-04-20T04:28:09.051Z,592.63
2023-04-20T04:30:37.428Z,678.63
2023-04-20T04:33:07.746Z,633.53
2023-04-20T04:35:36.218Z,619.60
2023-04-20T04:38:05.072Z,633.63
2023-04-20T04:40:53.987Z,611.15
2023-04-20T04:43:22.509Z,609.42
2023-04-20T04:45:50.990Z,695.97
2023-04-20T04:48:21.087Z,644.13
2023-04-20T04:50:49.620Z,596.30
2023-04-20T04:53:18.004Z,578.78
2023-04-20T04:55:46.648Z,593.28
2023-04-20T04:58:15.506Z,583.85
2023-04-20T05:00:44.021Z,577.38
2023-04-20T05:03:12.480Z,601.88
2023-04-20T05:05:42.179Z,601.75
2023-04-20T05:08:11.440Z,516.97
2023-04-20T05:10:39.892Z,388.90
2023-04-20T05:13:08.306Z,279.10
2023-04-20T05:15:36.746Z,292.73
2023-04-20T05:18:05.544Z,311.52
2023-04-20T05:20:34.151Z,370.83
2023-04-20T05:23:03.923Z,294.65
2023-04-20T05:25:32.909Z,577.80
2023-04-20T05:28:01.215Z,328.05
2023-04-20T05:30:29.887Z,303.35
2023-04-20T05:32:58.583Z,309.90
2023-04-20T05:35:27.286Z,301.95
2023-04-20T05:37:55.646Z,294.05
2023-04-20T05:40:25.786Z,397.80
2023-04-20T05:42:54.264Z,555.58
2023-04-20T05:45:22.882Z,408.83
2023-04-20T05:47:55.573Z,395.48
2023-04-20T05:50:27.922Z,268.10
2023-04-20T05:53:01.178Z,298.52
2023-04-20T05:55:31.277Z,290.23
2023-04-20T05:57:59.964Z,464.75
2023-04-20T06:00:28.655Z,258.27
2023-04-20T06:02:57.398Z,276.65
2023-04-20T06:05:26.471Z,454.35
2023-04-20T06:07:54.996Z,330.10
2023-04-20T06:10:23.421Z,387.42
2023-04-20T06:12:53.229Z,290.38
2023-04-20T06:15:21.573Z,574.83
2023-04-20T06:17:50.055Z,332.08
2023-04-20T06:20:19.818Z,321.05
2023-04-20T06:22:48.949Z,543.08
2023-04-20T06:25:17.414Z,376.65
2023-04-20T06:27:46.601Z,424.92
2023-04-20T06:30:17.270Z,312.65
2023-04-20T06:32:45.998Z,309.15
2023-04-20T06:35:14.597Z,315.38
2023-04-20T06:37:42.983Z,378.27
2023-04-20T06:40:13.190Z,580.60
2023-04-20T06:42:42.644Z,315.98
2023-04-20T06:45:12.375Z,370.00
2023-04-20T06:47:42.218Z,440.50
2023-04-20T06:50:11.520Z,325.63
2023-04-20T06:52:40.366Z,359.50
2023-04-20T06:55:09.759Z,365.35
2023-04-20T06:57:38.757Z,316.38
2023-04-20T07:00:09.806Z,554.92
2023-04-20T07:02:47.141Z,353.17
2023-04-20T07:05:15.966Z,581.72
2023-04-20T07:07:44.895Z,419.27
2023-04-20T07:10:15.092Z,384.73
2023-04-20T07:12:44.376Z,401.98
2023-04-20T07:15:12.869Z,322.00
2023-04-20T07:17:41.254Z,605.17
2023-04-20T07:20:12.174Z,396.02
2023-04-20T07:22:40.859Z,596.65
2023-04-20T07:25:10.244Z,341.65
2023-04-20T07:27:39.980Z,322.50
2023-04-20T07:30:12.632Z,338.13
2023-04-20T07:32:41.871Z,335.40
2023-04-20T07:35:12.251Z,323.38
2023-04-20T07:37:40.866Z,328.40
2023-04-20T07:40:10.418Z,316.17
2023-04-20T07:42:38.932Z,401.50
2023-04-20T07:45:08.736Z,318.75
2023-04-20T07:47:41.575Z,310.52
2023-04-20T07:50:12.343Z,296.45
2023-04-20T07:52:40.688Z,298.02
2023-04-20T07:55:14.104Z,276.45
2023-04-20T07:57:51.838Z,315.30
2023-04-20T08:00:21.266Z,390.63
2023-04-20T08:02:49.868Z,534.92
2023-04-20T08:05:21.206Z,296.58
2023-04-20T08:08:11.258Z,475.80
2023-04-20T08:10:54.613Z,295.30
2023-04-20T08:13:22.961Z,293.67
2023-04-20T08:15:51.379Z,328.77
2023-04-20T08:18:21.294Z,281.45
2023-04-20T08:20:51.682Z,609.42
2023-04-20T08:23:20.010Z,337.58
2023-04-20T08:25:48.411Z,338.25
2023-04-20T08:28:29.371Z,354.45
2023-04-20T08:31:01.760Z,399.70
2023-04-20T08:33:30.163Z,354.23
2023-04-20T08:35:59.860Z,390.95
2023-04-20T08:38:33.896Z,349.55
2023-04-20T08:41:02.763Z,349.67
2023-04-20T08:43:31.148Z,349.50
2023-04-20T08:46:00.938Z,343.17
2023-04-20T08:48:37.780Z,320.00
2023-04-20T08:51:07.991Z,463.45
2023-04-20T08:53:36.360Z,363.63
2023-04-20T08:56:05.280Z,291.85
2023-04-20T08:58:34.492Z,297.55
2023-04-20T09:01:02.941Z,620.90
2023-04-20T09:03:54.199Z,319.88
2023-04-20T09:06:53.016Z,424.70
2023-04-20T09:09:46.655Z,467.60
2023-04-20T09:15:48.190Z,318.52
2023-04-20T09:19:02.687Z,323.77
2023-04-20T09:24:49.233Z,349.25
2023-04-20T09:31:36.979Z,408.73
2023-04-20T09:34:31.397Z,402.65
2023-04-20T09:37:37.992Z,579.30
2023-04-20T09:40:42.185Z,473.27
2023-04-20T09:43:38.533Z,426.13
2023-04-20T09:46:08.102Z,483.00
2023-04-20T09:48:36.855Z,418.35
2023-04-20T09:51:05.507Z,534.35
2023-04-20T09:53:35.806Z,407.00
2023-04-20T09:56:04.316Z,535.97
2023-04-20T09:58:34.289Z,388.25
2023-04-20T10:01:03.349Z,419.35
2023-04-20T10:03:31.829Z,375.35
2023-04-20T10:06:00.247Z,391.27
2023-04-20T10:08:28.602Z,402.98
2023-04-20T10:10:58.270Z,429.45
2023-04-20T10:13:35.211Z,560.58
2023-04-20T10:16:03.637Z,424.95
2023-04-20T10:18:32.119Z,414.83
2023-04-20T10:21:09.372Z,484.80
2023-04-20T10:23:47.912Z,383.35
2023-04-20T10:26:17.790Z,390.52
2023-04-20T10:28:46.422Z,598.13
2023-04-20T10:31:17.216Z,568.58
2023-04-20T10:33:56.569Z,434.00
2023-04-20T10:36:29.366Z,495.42
2023-04-20T10:38:58.020Z,574.67
2023-04-20T10:41:27.948Z,480.50
2023-04-20T10:43:56.283Z,557.28
2023-04-20T10:46:25.469Z,486.38
2023-04-20T10:48:55.031Z,461.02
2023-04-20T10:51:23.878Z,441.20
2023-04-20T10:54:02.393Z,388.48
2023-04-20T10:56:38.952Z,512.42
2023-04-20T10:59:11.339Z,339.67
2023-04-20T11:01:39.908Z,333.92
2023-04-20T11:04:09.598Z,402.52
2023-04-20T11:06:39.587Z,668.88
2023-04-20T11:09:20.069Z,360.90
2023-04-20T11:12:00.883Z,319.90
2023-04-20T11:14:32.848Z,380.35
2023-04-20T11:17:02.574Z,354.85
2023-04-20T12:08:13.340Z,569.88
2023-04-20T12:11:27.772Z,565.75
2023-04-20T12:14:48.909Z,711.72
2023-04-20T12:17:04.508Z,591.30
2023-04-20T12:19:33.060Z,672.42
2023-04-20T12:22:01.568Z,600.58
2023-04-20T12:24:31.450Z,563.17
2023-04-20T12:27:00.040Z,721.42
2023-04-20T12:29:54.638Z,748.17
2023-04-20T12:32:24.554Z,591.92
2023-04-20T12:34:52.997Z,661.25
2023-04-20T12:37:21.643Z,520.13
2023-04-20T12:39:51.543Z,577.35
2023-04-20T12:42:20.108Z,616.40
2023-04-20T12:44:48.524Z,535.42
2023-04-20T12:47:17.072Z,616.03
2023-04-20T12:49:51.619Z,550.50
2023-04-20T12:52:20.503Z,564.78
2023-04-20T12:54:50.730Z,507.00
2023-04-20T12:58:06.269Z,517.15
2023-04-20T13:00:34.767Z,539.40
2023-04-20T13:03:03.501Z,778.83
2023-04-20T13:05:32.218Z,513.85
2023-04-20T13:08:24.343Z,573.95
2023-04-20T13:10:54.091Z,470.70
2023-04-20T13:13:31.899Z,522.85
2023-04-20T13:16:00.312Z,460.67
2023-04-20T13:18:28.717Z,498.80
2023-04-20T13:20:57.086Z,456.23
2023-04-20T13:23:25.791Z,503.50
2023-04-20T13:26:02.524Z,565.03
2023-04-20T13:28:36.030Z,566.47
2023-04-20T13:31:04.666Z,673.35
2023-04-20T13:33:33.625Z,547.22
2023-04-20T13:36:02.312Z,615.00
2023-04-20T13:38:30.897Z,500.73
2023-04-20T13:41:00.866Z,469.70
2023-04-20T13:43:29.333Z,496.35
2023-04-20T13:45:58.033Z,435.48
2023-04-20T13:48:26.558Z,455.77
2023-04-20T13:50:55.644Z,446.98
2023-04-20T13:53:24.679Z,479.17
2023-04-20T13:55:53.460Z,487.50
2023-04-20T13:58:51.603Z,523.40
2023-04-20T14:01:20.089Z,482.42
2023-04-20T14:04:05.714Z,504.70
2023-04-20T14:06:37.182Z,779.97
2023-04-20T14:09:08.307Z,564.17
2023-04-20T14:11:37.051Z,553.75
2023-04-20T14:14:07.252Z,563.92
2023-04-20T14:16:43.061Z,508.33
2023-04-20T14:19:11.724Z,579.30
2023-04-20T14:21:41.209Z,583.97
2023-04-20T14:24:11.732Z,547.83
2023-04-20T14:26:51.017Z,696.90
2023-04-20T14:29:49.867Z,694.80
2023-04-20T14:32:19.692Z,538.28
2023-04-20T14:34:53.549Z,656.70
2023-04-20T14:37:23.339Z,616.60
2023-04-20T14:39:52.015Z,649.10
2023-04-20T14:42:20.896Z,582.75
2023-04-20T14:44:50.815Z,627.03
2023-04-20T14:47:20.675Z,717.10
2023-04-20T14:49:49.072Z,709.28
2023-04-20T14:52:17.587Z,594.92
2023-04-20T14:54:47.259Z,632.60
2023-04-20T14:57:15.836Z,582.65
2023-04-20T14:59:44.327Z,757.55
2023-04-20T15:02:14.510Z,606.53
2023-04-20T15:04:43.193Z,651.58
2023-04-20T15:07:12.184Z,591.90
2023-04-20T15:09:40.563Z,602.35
2023-04-20T15:12:09.184Z,717.75
2023-04-20T15:14:37.520Z,627.25
2023-04-20T15:17:06.148Z,584.67
2023-04-20T15:19:36.539Z,700.55
2023-04-20T15:22:04.968Z,643.38
2023-04-20T15:24:33.575Z,624.53
2023-04-20T15:27:03.961Z,739.67
2023-04-20T15:29:34.504Z,608.45
2023-04-20T15:32:03.561Z,623.42
2023-04-20T15:34:31.958Z,769.88
2023-04-20T15:37:03.073Z,633.58
2023-04-20T15:39:34.539Z,632.58
2023-04-20T15:42:03.474Z,680.20
2023-04-20T15:44:32.084Z,619.90
2023-04-20T15:47:01.553Z,665.38
2023-04-20T15:49:29.949Z,837.78
2023-04-20T15:51:58.352Z,635.20
2023-04-20T15:54:28.747Z,622.72
2023-04-20T15:56:57.397Z,714.67
2023-04-20T15:59:27.702Z,630.78
2023-04-20T16:01:56.752Z,750.38
2023-04-20T16:04:26.290Z,640.72
2023-04-20T16:06:59.109Z,654.10
2023-04-20T16:09:29.282Z,737.60
2023-04-20T16:11:57.777Z,643.53
2023-04-20T16:14:27.098Z,752.47
2023-04-20T16:17:11.237Z,653.65
2023-04-20T16:19:40.917Z,632.33
2023-04-20T16:22:15.776Z,767.17
2023-04-20T16:24:49.384Z,682.70
2023-04-20T16:27:22.566Z,635.55
2023-04-20T16:29:51.704Z,820.63
2023-04-20T16:32:46.707Z,621.88
2023-04-20T16:35:33.321Z,656.30
2023-04-20T16:41:21.714Z,632.75
2023-04-20T16:44:08.562Z,844.63
2023-04-20T16:47:31.812Z,745.03
2023-04-20T16:50:40.902Z,599.35
2023-04-20T16:53:11.330Z,616.58
2023-04-20T16:55:41.715Z,649.00
2023-04-20T16:58:11.913Z,617.47
2023-04-20T17:00:40.572Z,757.17
2023-04-20T17:03:22.149Z,627.85
2023-04-20T17:05:51.312Z,676.53
2023-04-20T17:08:24.609Z,630.65
2023-04-20T17:11:04.335Z,600.17
2023-04-20T17:13:38.605Z,625.22
2023-04-20T17:16:20.272Z,781.17
2023-04-20T17:21:49.848Z,795.20
2023-04-20T17:24:18.563Z,649.50
2023-04-20T17:26:47.302Z,616.78
2023-04-20T17:29:17.178Z,669.30
2023-04-20T17:31:46.665Z,649.85
2023-04-20T17:34:23.258Z,650.85
2023-04-20T17:36:51.625Z,633.90
2023-04-20T17:39:25.919Z,673.08
2023-04-20T17:41:54.342Z,676.92
2023-04-20T17:45:12.688Z,603.75
2023-04-20T17:47:41.154Z,629.22
2023-04-20T17:50:11.701Z,608.65
2023-04-20T17:53:00.401Z,641.65
2023-04-20T17:55:58.687Z,712.00
2023-04-20T17:58:27.321Z,741.25
2023-04-20T18:00:57.175Z,625.25
2023-04-20T18:03:25.742Z,633.38
2023-04-20T18:05:54.520Z,613.00
2023-04-20T18:08:25.241Z,626.38
2023-04-20T18:10:55.698Z,630.38
2023-04-20T18:13:24.449Z,760.53
2023-04-20T18:15:52.875Z,630.97
2023-04-20T18:18:23.255Z,633.83
2023-04-20T18:20:51.875Z,630.17
2023-04-20T18:23:35.665Z,617.45
2023-04-20T18:26:04.364Z,652.38
2023-04-20T18:28:35.966Z,621.22
2023-04-20T18:31:40.868Z,637.13
2023-04-20T18:34:21.430Z,615.70
2023-04-20T18:36:49.970Z,650.90
2023-04-20T18:39:18.452Z,630.15
2023-04-20T18:41:46.919Z,626.50
2023-04-20T18:44:15.298Z,651.92
2023-04-20T18:46:44.050Z,643.10
2023-04-20T18:49:14.062Z,645.08
2023-04-20T18:51:42.538Z,616.33
2023-04-20T18:54:11.360Z,658.75
2023-04-20T18:56:40.571Z,654.03
2023-04-20T18:59:10.693Z,631.83
2023-04-20T19:01:40.655Z,639.47
2023-04-20T19:04:09.443Z,649.05
2023-04-20T19:06:43.744Z,661.70
2023-04-20T19:09:12.310Z,674.38
2023-04-20T19:11:40.914Z,665.55
2023-04-20T19:14:10.067Z,660.55
2023-04-20T19:16:38.823Z,672.95
2023-04-20T19:19:07.749Z,646.90
2023-04-20T19:21:36.674Z,683.72
2023-04-20T19:24:06.949Z,657.15
2023-04-20T19:26:35.460Z,659.92
2023-04-20T19:29:03.837Z,655.22
2023-04-20T19:31:37.871Z,657.13
2023-04-20T19:34:06.883Z,643.45
2023-04-20T19:36:35.492Z,663.63
2023-04-20T19:39:10.386Z,643.08
2023-04-20T19:41:39.662Z,646.88
2023-04-20T19:44:10.625Z,640.53
2023-04-20T19:46:40.595Z,634.58
2023-04-20T19:49:09.177Z,622.45
2023-04-20T19:51:37.549Z,628.95
2023-04-20T19:54:07.488Z,641.13
2023-04-20T19:56:37.026Z,619.78
2023-04-20T19:59:05.644Z,645.42
2023-04-20T20:01:34.197Z,619.92
2023-04-20T20:04:02.746Z,618.22
2023-04-20T20:06:32.116Z,632.67
2023-04-20T20:09:00.546Z,618.42
2023-04-20T20:11:30.518Z,611.33
2023-04-20T20:13:58.881Z,648.75
2023-04-20T20:16:29.204Z,629.38
2023-04-20T20:18:59.775Z,634.13
2023-04-20T20:21:28.178Z,634.33
2023-04-20T20:23:56.652Z,623.42
2023-04-20T20:26:25.064Z,638.00
2023-04-20T20:28:54.806Z,654.67
2023-04-20T20:31:23.304Z,614.28
2023-04-20T20:33:51.990Z,654.53
2023-04-20T20:36:20.343Z,635.45
2023-04-20T20:38:48.827Z,618.20
2023-04-20T20:41:18.366Z,615.88
2023-04-20T20:43:47.227Z,636.78
2023-04-20T20:46:17.348Z,630.80
2023-04-20T20:48:45.757Z,636.17
2023-04-20T20:51:16.225Z,623.42
2023-04-20T20:53:44.581Z,621.97
2023-04-20T20:56:50.247Z,693.17
2023-04-20T20:59:19.103Z,626.65
2023-04-20T21:01:49.359Z,666.75
2023-04-20T21:04:17.813Z,653.45
2023-04-20T21:06:46.263Z,647.53
2023-04-20T21:09:15.459Z,645.58
2023-04-20T21:11:43.817Z,633.40
2023-04-20T21:14:12.182Z,617.83
2023-04-20T21:16:40.810Z,647.22
2023-04-20T21:19:11.168Z,625.42
2023-04-20T21:21:39.539Z,687.67
2023-04-20T21:24:08.130Z,655.97
2023-04-20T21:26:36.565Z,680.47
2023-04-20T21:29:29.038Z,650.75
2023-04-20T21:31:57.815Z,653.80
2023-04-20T21:34:27.754Z,651.53
2023-04-20T21:37:03.334Z,691.88
2023-04-20T21:39:31.814Z,680.03
2023-04-20T21:42:00.493Z,685.10
2023-04-20T21:44:29.403Z,674.92
2023-04-20T21:46:57.758Z,671.17
2023-04-20T21:49:27.453Z,692.05
2023-04-20T21:51:55.833Z,664.25
2023-04-20T21:54:24.196Z,676.85
2023-04-20T21:56:52.712Z,679.67
2023-04-20T21:59:21.186Z,675.20
2023-04-20T22:01:49.695Z,686.67
2023-04-20T22:04:19.703Z,700.45
2023-04-20T22:06:50.145Z,684.85
2023-04-20T22:09:18.918Z,701.92
2023-04-20T22:11:47.835Z,699.33
2023-04-20T22:14:16.456Z,692.67
2023-04-20T22:16:44.845Z,704.33
2023-04-20T22:19:13.322Z,702.40
2023-04-20T22:21:42.953Z,681.28
2023-04-20T22:24:12.715Z,694.97
2023-04-20T22:26:41.938Z,687.70
2023-04-20T22:29:10.418Z,705.33
2023-04-20T22:31:38.848Z,702.83
2023-04-20T22:34:07.314Z,717.05
2023-04-20T22:36:36.075Z,695.33
2023-04-20T22:39:04.647Z,705.95
2023-04-20T22:41:34.514Z,706.28
2023-04-20T22:44:02.923Z,695.53
2023-04-20T22:46:31.344Z,713.53
2023-04-20T22:49:00.162Z,704.20
2023-04-20T22:51:29.014Z,738.03
2023-04-20T22:53:57.576Z,738.78
2023-04-20T22:56:26.105Z,693.30
2023-04-20T22:58:55.917Z,727.60
2023-04-20T23:01:24.390Z,738.28
2023-04-20T23:03:53.152Z,746.13
2023-04-20T23:06:22.093Z,702.53
2023-04-20T23:08:50.601Z,689.55
2023-04-20T23:11:20.741Z,706.42
2023-04-20T23:13:49.122Z,708.90
2023-04-20T23:16:18.916Z,733.63
2023-04-20T23:18:47.260Z,718.42
2023-04-20T23:21:15.665Z,704.25
2023-04-20T23:23:43.989Z,726.33
2023-04-20T23:26:12.349Z,713.45
2023-04-20T23:28:40.706Z,696.67
2023-04-20T23:31:09.083Z,736.38
2023-04-20T23:33:38.786Z,721.72
2023-04-20T23:36:07.732Z,730.90
2023-04-20T23:38:36.346Z,720.70
2023-04-20T23:41:10.183Z,716.88
2023-04-20T23:43:41.543Z,717.92
2023-04-20T23:46:10.564Z,717.85
2023-04-20T23:48:40.326Z,717.53
2023-04-20T23:51:08.678Z,705.30
2023-04-20T23:53:37.547Z,696.10
2023-04-20T23:56:06.591Z,691.13
2023-04-20T23:58:34.976Z,700.60
